Time;durP1;ratioP1;P1;durP2;ratioP2;P2;SDS_P1;SDS_P2;PMS_P1;PMS_P2;Temp;Humidity;BMP_temperature;BMP_pressure;BME280_temperature;BME280_humidity;BME280_pressure;Samples;Min_cycle;Max_cycle;Signal;HPM_P1;HPM_P2
2023/07/05 00:01:02;;;;;;;4.27;1.90;;;11.20;99.90;;;;;;4989517;28;20601;-80
2023/07/05 00:03:29;;;;;;;5.20;2.17;;;11.20;99.90;;;;;;4984956;28;20227;-80
2023/07/05 00:05:56;;;;;;;4.57;1.90;;;11.20;99.90;;;;;;4993161;28;20233;-79
2023/07/05 00:08:23;;;;;;;3.80;2.10;;;11.20;99.90;;;;;;4992223;28;20226;-80
2023/07/05 00:10:50;;;;;;;3.13;1.90;;;11.20;99.90;;;;;;4994196;28;20218;-79
2023/07/05 00:13:19;;;;;;;4.43;2.17;;;11.20;99.90;;;;;;4993518;28;20234;-80
2023/07/05 00:15:48;;;;;;;4.93;2.03;;;11.20;99.90;;;;;;4994321;28;20224;-80
2023/07/05 00:18:15;;;;;;;3.37;1.90;;;11.30;99.90;;;;;;4975077;28;20224;-81
2023/07/05 00:20:42;;;;;;;7.60;2.47;;;11.20;99.90;;;;;;4992778;28;20224;-80
2023/07/05 00:23:09;;;;;;;5.87;2.10;;;11.20;99.90;;;;;;4993170;28;20247;-80
2023/07/05 00:25:36;;;;;;;3.80;2.07;;;11.20;99.90;;;;;;4991959;28;20281;-80
2023/07/05 00:28:03;;;;;;;7.77;2.23;;;11.30;99.90;;;;;;4990813;28;20809;-79
2023/07/05 00:30:31;;;;;;;3.33;1.70;;;11.30;99.90;;;;;;4990086;28;20251;-80
2023/07/05 00:32:58;;;;;;;3.17;2.20;;;11.20;99.90;;;;;;4972273;28;20230;-80
2023/07/05 00:35:25;;;;;;;4.50;2.10;;;11.30;99.90;;;;;;4991190;28;20231;-80
2023/07/05 00:37:52;;;;;;;4.03;1.80;;;11.40;99.90;;;;;;4993270;28;20235;-80
2023/07/05 00:40:20;;;;;;;5.97;2.03;;;11.30;99.90;;;;;;4974974;28;20638;-79
2023/07/05 00:42:47;;;;;;;5.03;2.37;;;11.40;99.90;;;;;;4992653;28;20235;-79
2023/07/05 00:45:43;;;;;;;2.83;2.00;;;11.40;99.90;;;;;;4993157;28;20227;-80
2023/07/05 00:48:14;;;;;;;3.73;2.00;;;11.50;99.90;;;;;;4992876;28;20237;-79
2023/07/05 00:50:44;;;;;;;6.23;2.57;;;11.50;99.90;;;;;;4975321;28;20231;-79
2023/07/05 00:53:12;;;;;;;4.30;2.40;;;11.50;99.90;;;;;;4975348;28;20224;-80
2023/07/05 00:55:46;;;;;;;4.63;2.40;;;11.60;99.90;;;;;;4975274;28;20225;-79
2023/07/05 00:58:13;;;;;;;4.20;2.77;;;11.60;99.90;;;;;;4974255;28;20655;-79
2023/07/05 01:00:44;;;;;;;4.53;2.60;;;11.60;99.90;;;;;;4990783;28;20292;-80
2023/07/05 01:03:16;;;;;;;7.03;2.50;;;11.70;99.90;;;;;;4991934;28;20306;-80
2023/07/05 01:05:43;;;;;;;5.77;2.77;;;11.70;99.90;;;;;;4992534;28;20227;-81
2023/07/05 01:08:10;;;;;;;5.90;2.73;;;11.70;99.90;;;;;;4974288;28;20643;-81
2023/07/05 01:10:40;;;;;;;10.23;3.00;;;11.70;99.90;;;;;;4975401;28;20226;-81
2023/07/05 01:13:12;;;;;;;3.63;2.23;;;11.70;99.90;;;;;;4975054;28;20250;-80
2023/07/05 01:15:49;;;;;;;6.27;2.90;;;11.80;99.90;;;;;;4975037;28;20230;-80
2023/07/05 01:18:23;;;;;;;5.37;2.77;;;11.80;99.90;;;;;;4973336;28;20311;-80
2023/07/05 01:20:54;;;;;;;13.23;3.37;;;11.80;99.90;;;;;;4974084;28;20226;-80
2023/07/05 01:23:41;;;;;;;6.30;2.80;;;11.80;99.90;;;;;;4974341;28;20242;-81
2023/07/05 01:26:40;;;;;;;6.83;2.73;;;11.90;99.90;;;;;;4974900;28;20901;-80
2023/07/05 01:29:30;;;;;;;7.53;3.30;;;11.90;99.90;;;;;;4991852;28;20327;-80
2023/07/05 01:32:04;;;;;;;6.43;3.20;;;12.00;99.90;;;;;;4973661;28;20830;-80
2023/07/05 01:34:39;;;;;;;6.73;3.33;;;12.00;99.90;;;;;;4974254;28;20681;-80
2023/07/05 01:37:07;;;;;;;5.70;3.83;;;12.00;99.90;;;;;;4989982;28;20779;-79
2023/07/05 01:39:34;;;;;;;10.70;3.77;;;12.00;99.90;;;;;;4992665;28;20343;-80
2023/07/05 01:42:04;;;;;;;11.03;4.30;;;12.10;99.90;;;;;;4991560;28;20313;-80
2023/07/05 01:44:32;;;;;;;7.47;3.23;;;12.10;99.90;;;;;;4980720;28;20228;-81
2023/07/05 01:47:07;;;;;;;8.57;3.90;;;12.10;99.90;;;;;;4968058;28;20287;-81
2023/07/05 01:49:53;;;;;;;8.60;3.70;;;12.20;99.90;;;;;;4979863;28;20229;-81
2023/07/05 01:52:29;;;;;;;7.97;3.90;;;12.20;99.90;;;;;;4981130;28;20232;-81
2023/07/05 01:55:05;;;;;;;8.40;3.47;;;12.20;99.90;;;;;;4985123;28;20652;-80
2023/07/05 01:57:36;;;;;;;7.77;3.50;;;12.20;99.90;;;;;;4967976;28;20233;-81
2023/07/05 02:00:07;;;;;;;9.67;3.60;;;12.20;99.90;;;;;;4968391;28;20319;-81
2023/07/05 02:02:42;;;;;;;6.83;4.07;;;12.20;99.90;;;;;;4981833;28;20676;-80
2023/07/05 02:05:10;;;;;;;8.27;3.70;;;12.30;99.90;;;;;;4981625;28;20620;-79
2023/07/05 02:07:37;;;;;;;5.50;3.57;;;12.30;99.90;;;;;;4977354;28;20225;-80
2023/07/05 02:10:05;;;;;;;7.70;3.73;;;12.30;99.90;;;;;;4967178;28;20646;-81
2023/07/05 02:12:31;;;;;;;8.60;3.80;;;12.30;99.90;;;;;;4979280;28;20755;-81
2023/07/05 02:14:58;;;;;;;7.93;4.23;;;12.30;99.90;;;;;;4964768;28;20227;-83
2023/07/05 02:17:27;;;;;;;10.30;4.23;;;12.30;99.90;;;;;;4963081;28;20224;-81
2023/07/05 02:19:55;;;;;;;7.40;4.27;;;12.30;99.90;;;;;;4964406;28;20233;-82
2023/07/05 02:22:21;;;;;;;8.13;4.20;;;12.30;99.90;;;;;;4964412;28;20234;-81
2023/07/05 02:24:51;;;;;;;8.90;4.50;;;12.30;99.90;;;;;;4963754;28;20226;-81
2023/07/05 02:27:18;;;;;;;9.23;4.57;;;12.30;99.90;;;;;;4964716;28;20224;-81
2023/07/05 02:29:45;;;;;;;10.47;4.80;;;12.30;99.90;;;;;;4984546;28;20251;-82
2023/07/05 02:32:12;;;;;;;10.07;4.73;;;12.30;99.90;;;;;;4973517;28;20301;-80
2023/07/05 02:34:40;;;;;;;11.30;5.00;;;12.30;99.90;;;;;;4992624;28;20234;-80
2023/07/05 02:37:08;;;;;;;12.20;5.30;;;12.40;99.90;;;;;;4992992;28;20225;-79
2023/07/05 02:39:35;;;;;;;11.90;4.83;;;12.40;99.90;;;;;;5051767;23;20306;-79
2023/07/05 02:42:02;;;;;;;10.27;5.00;;;12.40;99.90;;;;;;5044395;28;20238;-80
2023/07/05 02:44:29;;;;;;;8.77;4.30;;;12.40;99.90;;;;;;5044835;28;20317;-80
2023/07/05 02:46:56;;;;;;;8.43;4.63;;;12.40;99.90;;;;;;5062016;28;20840;-78
2023/07/05 02:49:23;;;;;;;9.30;4.70;;;12.40;99.90;;;;;;5044630;28;20668;-78
2023/07/05 02:51:50;;;;;;;12.90;5.40;;;12.40;99.90;;;;;;5046787;28;20217;-79
2023/07/05 02:54:19;;;;;;;17.20;4.57;;;12.40;99.90;;;;;;5048628;28;20310;-79
2023/07/05 02:56:45;;;;;;;8.90;4.83;;;12.40;99.90;;;;;;5046021;28;20216;-79
2023/07/05 02:59:12;;;;;;;9.70;5.00;;;12.50;99.90;;;;;;5045520;28;20241;-79
2023/07/05 03:01:39;;;;;;;9.20;4.90;;;12.50;99.90;;;;;;5045366;28;20227;-79
2023/07/05 03:04:06;;;;;;;8.60;5.30;;;12.50;99.90;;;;;;5045526;28;20736;-78
2023/07/05 03:06:33;;;;;;;8.23;4.80;;;12.50;99.90;;;;;;5044994;28;20234;-79
2023/07/05 03:08:59;;;;;;;7.30;4.57;;;12.50;99.90;;;;;;5045286;28;20903;-78
2023/07/05 03:11:27;;;;;;;9.07;4.83;;;12.50;99.90;;;;;;5045307;28;20848;-78
2023/07/05 03:13:54;;;;;;;7.13;4.27;;;12.60;99.90;;;;;;5045695;28;20229;-78
2023/07/05 03:16:21;;;;;;;8.70;4.50;;;12.60;99.90;;;;;;5044549;28;20581;-78
2023/07/05 03:18:48;;;;;;;8.57;4.90;;;12.70;99.90;;;;;;5047506;28;20577;-79
2023/07/05 03:21:15;;;;;;;8.53;4.80;;;12.70;99.90;;;;;;5045634;28;20229;-78
2023/07/05 03:23:42;;;;;;;10.03;5.10;;;12.80;99.90;;;;;;5045447;28;20250;-79
2023/07/05 03:26:10;;;;;;;6.43;4.23;;;12.80;99.90;;;;;;5044024;28;20219;-79
2023/07/05 03:28:39;;;;;;;9.33;5.47;;;12.80;99.90;;;;;;5044928;28;20235;-78
2023/07/05 03:31:10;;;;;;;12.90;4.97;;;12.80;99.90;;;;;;5044222;28;20301;-78
2023/07/05 03:33:38;;;;;;;6.53;4.43;;;12.80;99.90;;;;;;5040748;28;20225;-78
2023/07/05 03:36:08;;;;;;;9.90;4.03;;;12.90;99.90;;;;;;5025372;28;20285;-78
2023/07/05 03:38:35;;;;;;;7.63;4.27;;;12.90;99.90;;;;;;5024632;28;20251;-78
2023/07/05 03:41:04;;;;;;;9.30;4.50;;;12.90;99.90;;;;;;5040710;28;20892;-78
2023/07/05 03:43:35;;;;;;;6.93;4.20;;;12.90;99.90;;;;;;5024552;28;20246;-78
2023/07/05 03:46:04;;;;;;;7.43;4.43;;;12.90;99.90;;;;;;5028377;28;20220;-78
2023/07/05 03:48:34;;;;;;;7.47;4.43;;;12.90;99.90;;;;;;5028233;28;20721;-78
2023/07/05 03:51:01;;;;;;;7.53;4.70;;;12.90;99.90;;;;;;5030095;28;20934;-78
2023/07/05 03:53:28;;;;;;;7.80;4.33;;;13.00;99.90;;;;;;5028754;28;20246;-78
2023/07/05 03:55:59;;;;;;;7.37;4.60;;;13.00;99.90;;;;;;5029119;28;21137;-78
2023/07/05 03:58:26;;;;;;;14.23;5.00;;;13.10;99.90;;;;;;5028974;28;20709;-78
2023/07/05 04:00:53;;;;;;;11.17;5.00;;;13.10;99.90;;;;;;5028055;28;20222;-77
2023/07/05 04:03:21;;;;;;;9.47;4.70;;;13.10;99.90;;;;;;5028814;28;20303;-78
2023/07/05 04:05:47;;;;;;;7.57;4.63;;;13.10;99.90;;;;;;5027634;28;20243;-77
2023/07/05 04:08:14;;;;;;;6.60;4.87;;;13.20;99.90;;;;;;5028434;28;20226;-77
2023/07/05 04:10:47;;;;;;;10.47;5.00;;;13.20;99.90;;;;;;5028899;28;20231;-78
2023/07/05 04:13:14;;;;;;;9.87;5.27;;;13.10;99.90;;;;;;5030078;28;20227;-78
2023/07/05 04:15:40;;;;;;;8.43;5.60;;;13.10;99.90;;;;;;5027446;28;20251;-78
2023/07/05 04:18:07;;;;;;;8.27;5.13;;;13.10;99.90;;;;;;5028745;28;20235;-78
2023/07/05 04:20:37;;;;;;;11.10;5.20;;;13.10;99.90;;;;;;5030345;28;20236;-78
2023/07/05 04:23:03;;;;;;;7.00;4.60;;;13.00;99.90;;;;;;5027275;28;20325;-79
2023/07/05 04:25:30;;;;;;;9.73;5.00;;;12.90;99.90;;;;;;5025831;28;20311;-77
2023/07/05 04:27:57;;;;;;;10.53;5.43;;;12.90;99.90;;;;;;5027088;28;20242;-78
2023/07/05 04:30:23;;;;;;;10.60;6.00;;;12.90;99.90;;;;;;5026310;28;20422;-78
2023/07/05 04:32:50;;;;;;;13.20;6.10;;;12.90;99.90;;;;;;5027477;28;20219;-79
2023/07/05 04:35:19;;;;;;;10.50;6.30;;;12.90;99.90;;;;;;5023325;28;20234;-79
2023/07/05 04:37:47;;;;;;;9.00;5.97;;;12.80;99.90;;;;;;5055375;28;20846;-79
2023/07/05 04:40:14;;;;;;;17.27;8.10;;;12.80;99.90;;;;;;5056382;28;20241;-79
2023/07/05 04:42:41;;;;;;;9.87;6.13;;;12.70;99.90;;;;;;5051816;28;20293;-78
2023/07/05 04:45:09;;;;;;;10.20;6.03;;;12.80;99.90;;;;;;5045392;28;20219;-78
2023/07/05 04:47:36;;;;;;;15.20;6.40;;;12.70;99.90;;;;;;5045890;28;20721;-78
2023/07/05 04:50:03;;;;;;;10.73;6.67;;;12.70;99.90;;;;;;5046537;28;20269;-78
2023/07/05 04:52:30;;;;;;;12.47;7.17;;;12.70;99.90;;;;;;5047249;28;20313;-78
2023/07/05 04:54:58;;;;;;;10.03;6.70;;;12.70;99.90;;;;;;5046429;28;20314;-78
2023/07/05 04:57:28;;;;;;;13.33;7.33;;;12.60;99.90;;;;;;5047788;28;20727;-78
2023/07/05 04:59:55;;;;;;;11.13;7.47;;;12.60;99.90;;;;;;5039210;28;20581;-78
2023/07/05 05:02:22;;;;;;;12.23;7.53;;;12.60;99.90;;;;;;5037219;28;20333;-78
2023/07/05 05:04:49;;;;;;;12.93;7.30;;;12.60;99.90;;;;;;5045068;28;20227;-78
2023/07/05 05:07:15;;;;;;;14.87;8.10;;;12.60;99.90;;;;;;5038761;28;20249;-78
2023/07/05 05:09:42;;;;;;;13.20;7.93;;;12.50;99.90;;;;;;5036761;28;20236;-78
2023/07/05 05:12:11;;;;;;;11.10;8.30;;;12.50;99.90;;;;;;5043580;28;20311;-79
2023/07/05 05:14:38;;;;;;;15.10;7.73;;;12.50;99.90;;;;;;5054669;28;20303;-80
2023/07/05 05:17:05;;;;;;;13.97;8.63;;;12.60;99.90;;;;;;5060643;28;20232;-80
2023/07/05 05:19:31;;;;;;;13.17;7.90;;;12.50;99.90;;;;;;5049059;28;20599;-80
2023/07/05 05:21:58;;;;;;;12.23;8.10;;;12.50;99.90;;;;;;5053487;28;20222;-80
2023/07/05 05:24:25;;;;;;;14.83;8.97;;;12.50;99.90;;;;;;5049623;28;20285;-80
2023/07/05 05:26:54;;;;;;;19.00;8.33;;;12.50;99.90;;;;;;5054244;28;20287;-82
2023/07/05 05:29:22;;;;;;;14.50;8.57;;;12.50;99.90;;;;;;5067417;28;20248;-82
2023/07/05 05:31:49;;;;;;;18.00;9.40;;;12.50;99.90;;;;;;5044968;28;20230;-81
2023/07/05 05:34:16;;;;;;;13.80;8.53;;;12.40;99.90;;;;;;5044766;28;20311;-81
2023/07/05 05:36:43;;;;;;;30.90;10.13;;;12.40;99.90;;;;;;5036112;28;20215;-81
2023/07/05 05:39:10;;;;;;;19.90;9.67;;;12.40;99.90;;;;;;5044481;28;20226;-80
2023/07/05 05:41:36;;;;;;;18.33;9.57;;;12.30;99.90;;;;;;5046074;28;20223;-80
2023/07/05 05:44:03;;;;;;;16.20;10.00;;;12.30;99.90;;;;;;5061798;28;20233;-81
2023/07/05 05:46:31;;;;;;;18.83;9.63;;;12.30;99.90;;;;;;5049053;28;20650;-81
2023/07/05 05:48:58;;;;;;;15.30;9.27;;;12.30;99.90;;;;;;5029440;28;20228;-81
2023/07/05 05:51:24;;;;;;;15.10;10.00;;;12.20;99.90;;;;;;5031564;28;20312;-81
2023/07/05 05:53:51;;;;;;;18.70;10.63;;;12.20;99.90;;;;;;5048467;28;20224;-80
2023/07/05 05:56:18;;;;;;;17.03;10.70;;;12.10;99.90;;;;;;5043513;28;20228;-80
2023/07/05 05:58:44;;;;;;;18.13;10.70;;;12.10;99.90;;;;;;5052776;28;20300;-80
2023/07/05 06:01:12;;;;;;;18.17;10.73;;;12.10;99.90;;;;;;5036473;28;20233;-81
2023/07/05 06:03:40;;;;;;;16.37;10.53;;;12.00;99.90;;;;;;5032756;28;20312;-81
2023/07/05 06:06:07;;;;;;;16.20;11.60;;;12.00;99.90;;;;;;5050479;28;20220;-81
2023/07/05 06:08:34;;;;;;;17.00;10.83;;;12.00;99.90;;;;;;5050363;28;20241;-81
2023/07/05 06:11:03;;;;;;;17.23;10.93;;;12.00;99.90;;;;;;5047633;28;20228;-81
2023/07/05 06:13:31;;;;;;;19.30;11.60;;;12.00;99.90;;;;;;5048493;28;20234;-81
2023/07/05 06:15:59;;;;;;;15.60;11.00;;;12.00;99.90;;;;;;5054399;28;20248;-81
2023/07/05 06:18:27;;;;;;;15.37;11.00;;;12.00;99.90;;;;;;5053501;28;20231;-81
2023/07/05 06:20:56;;;;;;;18.70;11.20;;;12.00;99.90;;;;;;5055090;28;20239;-81
2023/07/05 06:23:23;;;;;;;13.97;10.90;;;12.10;99.90;;;;;;5051522;28;20224;-81
2023/07/05 06:25:51;;;;;;;20.07;11.97;;;12.00;99.90;;;;;;5044289;28;20600;-81
2023/07/05 06:28:18;;;;;;;19.63;10.50;;;12.10;99.90;;;;;;5050214;28;20223;-80
2023/07/05 06:30:46;;;;;;;14.20;10.77;;;12.20;99.90;;;;;;5053493;28;20228;-80
2023/07/05 06:33:13;;;;;;;17.67;11.17;;;12.20;99.90;;;;;;5053332;28;20221;-82
2023/07/05 06:35:40;;;;;;;18.47;11.97;;;12.10;99.90;;;;;;5054504;28;20316;-81
2023/07/05 06:38:08;;;;;;;17.73;11.43;;;12.20;99.90;;;;;;5053181;28;20806;-80
2023/07/05 06:40:35;;;;;;;16.43;10.87;;;12.20;99.90;;;;;;5053577;28;20233;-80
2023/07/05 06:43:03;;;;;;;15.87;11.07;;;12.30;99.90;;;;;;5056446;28;20257;-80
2023/07/05 06:45:35;;;;;;;18.70;11.10;;;12.30;99.90;;;;;;5052268;28;20220;-80
2023/07/05 06:48:01;;;;;;;16.27;11.07;;;12.30;99.90;;;;;;5054591;28;20226;-80
2023/07/05 06:50:28;;;;;;;17.93;11.63;;;12.30;99.90;;;;;;5065082;28;20220;-80
2023/07/05 06:52:55;;;;;;;15.17;11.40;;;12.40;99.90;;;;;;5051902;28;20226;-81
2023/07/05 06:55:23;;;;;;;18.03;10.73;;;12.30;99.90;;;;;;5048497;28;20234;-79
2023/07/05 06:57:49;;;;;;;16.80;11.47;;;12.30;99.90;;;;;;5048977;28;20765;-81
2023/07/05 07:00:17;;;;;;;16.13;10.70;;;12.30;99.90;;;;;;5049997;28;20221;-81
2023/07/05 07:02:43;;;;;;;18.30;11.13;;;12.30;99.90;;;;;;5050641;28;20237;-80
2023/07/05 07:05:11;;;;;;;14.97;10.73;;;12.20;99.90;;;;;;5052371;28;20237;-80
2023/07/05 07:07:38;;;;;;;21.03;11.30;;;12.20;99.90;;;;;;5053401;28;20859;-80
2023/07/05 07:10:05;;;;;;;19.03;11.60;;;12.20;99.90;;;;;;5047899;28;20847;-80
2023/07/05 07:12:34;;;;;;;16.60;11.70;;;12.20;99.90;;;;;;5049930;28;20222;-80
2023/07/05 07:15:00;;;;;;;18.57;11.50;;;12.20;99.90;;;;;;5050474;28;20227;-80
2023/07/05 07:17:27;;;;;;;17.57;11.80;;;12.20;99.90;;;;;;5050608;28;20236;-80
2023/07/05 07:19:54;;;;;;;19.07;11.87;;;12.20;99.90;;;;;;5051919;28;20227;-80
2023/07/05 07:22:20;;;;;;;23.43;12.83;;;12.20;99.90;;;;;;5055849;28;20228;-81
2023/07/05 07:24:50;;;;;;;17.57;11.47;;;12.20;99.90;;;;;;5053281;28;20810;-81
2023/07/05 07:27:17;;;;;;;17.90;11.70;;;12.20;99.90;;;;;;5042428;28;20861;-81
2023/07/05 07:29:45;;;;;;;22.57;12.53;;;12.30;99.90;;;;;;5054340;28;20253;-80
2023/07/05 07:32:12;;;;;;;17.90;11.47;;;12.30;99.90;;;;;;5054647;28;20215;-81
2023/07/05 07:34:40;;;;;;;19.60;12.37;;;12.30;99.90;;;;;;5056926;28;20315;-80
2023/07/05 07:37:07;;;;;;;19.00;11.67;;;12.30;99.90;;;;;;5045092;28;20224;-79
2023/07/05 07:39:33;;;;;;;16.30;12.50;;;12.40;99.90;;;;;;5048354;28;20242;-80
2023/07/05 07:42:00;;;;;;;17.73;12.40;;;12.40;99.90;;;;;;5056352;28;20244;-77
2023/07/05 07:44:27;;;;;;;19.70;12.53;;;12.50;99.90;;;;;;5052703;28;20231;-77
2023/07/05 07:46:57;;;;;;;16.83;12.43;;;12.50;99.90;;;;;;5053938;28;20228;-77
2023/07/05 07:49:23;;;;;;;16.00;12.20;;;12.60;99.90;;;;;;5048349;28;20230;-78
2023/07/05 07:51:50;;;;;;;18.33;11.87;;;12.60;99.90;;;;;;5043113;28;20281;-78
2023/07/05 07:54:20;;;;;;;15.57;11.70;;;12.70;99.90;;;;;;5045942;28;20858;-78
2023/07/05 07:56:48;;;;;;;17.97;11.03;;;12.70;99.90;;;;;;5043722;28;20759;-78
2023/07/05 07:59:16;;;;;;;17.03;12.23;;;12.80;99.90;;;;;;5046956;28;20223;-78
2023/07/05 08:01:44;;;;;;;16.57;11.40;;;12.90;99.90;;;;;;5045932;28;20227;-78
2023/07/05 08:04:13;;;;;;;16.87;11.80;;;12.90;99.90;;;;;;5049814;28;20715;-78
2023/07/05 08:06:42;;;;;;;17.20;12.53;;;13.00;99.90;;;;;;5049249;28;20578;-78
2023/07/05 08:09:11;;;;;;;17.00;11.73;;;13.00;99.90;;;;;;5050879;28;20231;-78
2023/07/05 08:11:38;;;;;;;18.10;11.53;;;13.10;99.90;;;;;;5047919;28;20232;-78
2023/07/05 08:14:06;;;;;;;17.93;11.67;;;13.20;99.90;;;;;;5046519;28;20223;-78
2023/07/05 08:16:32;;;;;;;17.37;10.77;;;13.20;99.90;;;;;;5048545;28;20222;-78
2023/07/05 08:18:59;;;;;;;14.43;11.43;;;13.20;99.90;;;;;;5048435;28;20218;-77
2023/07/05 08:21:27;;;;;;;19.97;11.73;;;13.20;99.90;;;;;;5053087;28;20234;-78
2023/07/05 08:23:54;;;;;;;14.43;11.03;;;13.20;99.90;;;;;;5052193;28;20224;-77
2023/07/05 08:26:22;;;;;;;14.97;11.33;;;13.20;99.90;;;;;;5048387;28;20236;-77
2023/07/05 08:28:48;;;;;;;13.47;11.13;;;13.20;99.90;;;;;;5058686;28;20719;-77
2023/07/05 08:31:15;;;;;;;15.77;11.90;;;13.20;99.90;;;;;;5051073;28;20220;-77
2023/07/05 08:33:43;;;;;;;14.57;11.97;;;13.20;99.90;;;;;;5050955;28;20311;-77
2023/07/05 08:36:19;;;;;;;18.43;12.23;;;13.30;99.90;;;;;;5039733;28;21538;-78
2023/07/05 08:38:50;;;;;;;19.27;13.27;;;13.40;99.90;;;;;;5048672;22;20219;-77
2023/07/05 08:41:25;;;;;;;19.00;12.70;;;13.50;99.90;;;;;;4980334;28;20947;-77
2023/07/05 08:43:57;;;;;;;16.77;12.83;;;13.70;99.90;;;;;;4992843;28;20230;-77
2023/07/05 08:46:27;;;;;;;18.87;13.50;;;13.90;99.90;;;;;;4993064;28;20694;-77
2023/07/05 08:48:57;;;;;;;177.37;26.20;;;14.20;99.90;;;;;;4996347;28;20243;-77
2023/07/05 08:51:24;;;;;;;16.37;11.97;;;14.40;99.90;;;;;;4980968;28;20232;-77
2023/07/05 08:53:57;;;;;;;13.70;10.60;;;14.70;99.90;;;;;;4984318;28;20220;-77
2023/07/05 08:56:27;;;;;;;15.27;10.70;;;14.80;99.90;;;;;;4985419;28;21942;-77
2023/07/05 08:58:59;;;;;;;16.67;9.93;;;15.00;99.90;;;;;;4986360;28;20738;-77
2023/07/05 09:01:28;;;;;;;14.30;9.53;;;15.10;99.90;;;;;;4985516;28;20231;-79
2023/07/05 09:03:56;;;;;;;15.17;9.80;;;15.10;99.90;;;;;;4988574;28;20609;-79
2023/07/05 09:06:25;;;;;;;13.27;9.57;;;15.20;99.90;;;;;;4985556;28;20234;-79
2023/07/05 09:09:31;;;;;;;13.20;9.43;;;15.30;99.90;;;;;;4984263;28;20225;-79
2023/07/05 09:12:08;;;;;;;10.23;8.00;;;15.40;99.90;;;;;;4913313;29;20227;-79
2023/07/05 09:14:50;;;;;;;9.10;7.47;;;15.50;99.90;;;;;;4961213;28;20223;-79
2023/07/05 09:17:22;;;;;;;10.27;7.47;;;15.60;99.90;;;;;;4964394;28;20814;-80
2023/07/05 09:19:56;;;;;;;9.10;6.27;;;15.80;99.90;;;;;;4956412;28;20618;-80
2023/07/05 09:22:28;;;;;;;5.40;4.90;;;15.90;99.90;;;;;;4937627;28;20743;-80
2023/07/05 09:24:58;;;;;;;5.97;5.00;;;16.00;99.90;;;;;;4954438;28;20240;-80
2023/07/05 09:27:28;;;;;;;5.23;4.73;;;16.20;99.90;;;;;;4966495;28;20241;-81
2023/07/05 09:30:00;;;;;;;5.90;3.63;;;16.50;99.90;;;;;;4968590;28;21141;-81
2023/07/05 09:32:31;;;;;;;4.97;3.00;;;16.80;99.90;;;;;;4986077;28;20233;-81
2023/07/05 09:34:59;;;;;;;4.47;2.77;;;17.10;99.90;;;;;;4982506;28;20767;-81
2023/07/05 09:37:29;;;;;;;5.07;2.80;;;17.40;99.90;;;;;;4971525;28;20226;-81
2023/07/05 09:40:16;;;;;;;3.40;2.70;;;17.60;99.90;;;;;;4968282;28;20236;-81
2023/07/05 09:42:48;;;;;;;5.17;2.50;;;17.90;99.90;;;;;;4980668;28;20229;-81
2023/07/05 09:45:17;;;;;;;3.05;2.50;;;18.10;99.90;;;;;;4984078;28;20226;-81
2023/07/05 09:47:46;;;;;;;4.18;2.38;;;18.40;99.90;;;;;;4986096;28;20232;-81
2023/07/05 09:50:16;;;;;;;2.97;2.30;;;18.70;99.90;;;;;;4986427;28;20832;-81
2023/07/05 09:52:45;;;;;;;3.05;2.30;;;19.00;99.90;;;;;;4968303;28;20226;-81
2023/07/05 09:55:15;;;;;;;3.72;2.30;;;19.40;99.90;;;;;;4984070;28;20716;-81
2023/07/05 09:57:43;;;;;;;5.07;2.90;;;19.60;99.90;;;;;;4982360;28;20607;-81
2023/07/05 10:00:23;;;;;;;3.85;2.33;;;20.00;99.90;;;;;;4984305;28;20590;-81
2023/07/05 10:02:51;;;;;;;3.55;2.67;;;20.30;99.90;;;;;;4980313;28;20232;-81
2023/07/05 10:05:26;;;;;;;3.45;2.47;;;20.60;99.90;;;;;;4978470;28;20226;-81
2023/07/05 10:07:56;;;;;;;3.33;2.53;;;20.80;99.90;;;;;;4984225;28;20210;-81
2023/07/05 10:10:27;;;;;;;4.47;2.65;;;21.00;99.90;;;;;;4968056;28;20268;-81
2023/07/05 10:13:02;;;;;;;4.53;2.15;;;21.10;99.90;;;;;;4980013;28;20222;-81
2023/07/05 10:15:30;;;;;;;2.53;2.10;;;21.30;99.90;;;;;;4972940;28;20229;-81
2023/07/05 10:17:57;;;;;;;3.30;2.15;;;21.50;99.70;;;;;;4980177;28;20310;-81
2023/07/05 10:20:27;;;;;;;3.70;2.38;;;21.50;98.90;;;;;;4986093;28;20237;-81
2023/07/05 10:23:04;;;;;;;3.40;2.45;;;21.50;96.90;;;;;;4966217;28;20229;-80
2023/07/05 10:25:35;;;;;;;2.97;2.33;;;21.40;95.50;;;;;;4970730;28;20755;-81
2023/07/05 10:28:05;;;;;;;5.00;2.40;;;21.40;98.30;;;;;;4965820;28;20233;-81
2023/07/05 10:30:31;;;;;;;3.80;2.28;;;21.30;98.70;;;;;;4982401;28;20230;-81
2023/07/05 10:33:17;;;;;;;4.20;2.20;;;21.30;99.70;;;;;;4984323;28;20229;-81
2023/07/05 10:35:53;;;;;;;3.58;2.05;;;21.30;97.20;;;;;;4970033;28;20222;-81
2023/07/05 10:38:25;;;;;;;3.05;1.90;;;21.40;97.80;;;;;;4981902;28;20671;-81
2023/07/05 10:40:59;;;;;;;4.57;2.13;;;21.40;95.50;;;;;;4982392;28;20221;-81
2023/07/05 10:43:27;;;;;;;3.10;1.85;;;21.40;96.00;;;;;;4979570;28;20228;-81
2023/07/05 10:45:54;;;;;;;3.65;2.00;;;21.50;94.70;;;;;;4980923;28;20313;-81
2023/07/05 10:48:25;;;;;;;3.90;2.20;;;21.50;94.30;;;;;;4970755;28;20230;-81
2023/07/05 10:50:52;;;;;;;2.72;1.98;;;21.50;94.30;;;;;;4982846;28;20218;-81
2023/07/05 10:53:22;;;;;;;4.40;2.00;;;21.40;95.00;;;;;;4971978;28;20651;-81
2023/07/05 10:55:53;;;;;;;4.93;2.10;;;21.40;95.80;;;;;;4986067;28;20257;-81
2023/07/05 10:58:24;;;;;;;4.55;1.70;;;21.30;95.40;;;;;;4972359;28;20225;-81
2023/07/05 11:00:57;;;;;;;5.53;2.50;;;21.00;95.10;;;;;;4985019;28;20240;-81
2023/07/05 11:03:27;;;;;;;3.00;2.10;;;21.00;96.60;;;;;;4972409;28;20763;-81
2023/07/05 11:05:58;;;;;;;3.58;1.92;;;20.90;95.90;;;;;;4988995;28;20229;-81
2023/07/05 11:08:28;;;;;;;4.50;2.35;;;20.70;95.30;;;;;;4984739;28;20853;-81
2023/07/05 11:10:58;;;;;;;2.67;1.70;;;20.60;95.80;;;;;;4988168;28;20602;-81
2023/07/05 11:13:29;;;;;;;4.65;1.95;;;20.40;96.40;;;;;;4972388;28;20703;-81
2023/07/05 11:15:57;;;;;;;3.80;1.92;;;20.20;94.30;;;;;;4972541;28;20569;-81
2023/07/05 11:18:25;;;;;;;2.13;1.42;;;20.20;96.60;;;;;;4969362;28;20230;-81
2023/07/05 11:20:54;;;;;;;4.97;1.98;;;20.00;94.10;;;;;;4952789;28;20278;-80
2023/07/05 11:23:54;;;;;;;4.50;1.55;;;19.80;94.40;;;;;;4968431;28;20222;-80
2023/07/05 11:26:33;;;;;;;4.43;1.60;;;19.60;94.70;;;;;;4967753;28;20236;-81
2023/07/05 11:29:22;;;;;;;2.00;1.60;;;19.60;96.20;;;;;;4967535;28;20245;-80
2023/07/05 11:32:00;;;;;;;5.05;1.80;;;19.60;95.80;;;;;;4965039;28;20225;-80
2023/07/05 11:34:34;;;;;;;2.90;1.48;;;19.80;95.30;;;;;;4985927;28;20234;-80
2023/07/05 11:37:38;;;;;;;2.08;1.30;;;20.00;95.80;;;;;;4987101;28;20217;-81
2023/07/05 11:40:27;;;;;;;4.22;1.67;;;20.30;95.00;;;;;;4971756;28;20225;-80
2023/07/05 11:42:54;;;;;;;1.42;1.30;;;20.50;95.70;;;;;;4961170;28;20235;-80
2023/07/05 11:45:23;;;;;;;3.45;1.30;;;20.80;95.10;;;;;;4968581;28;20245;-81
2023/07/05 11:47:51;;;;;;;3.35;1.48;;;21.00;94.90;;;;;;4955546;28;20229;-80
2023/07/05 11:50:20;;;;;;;3.17;1.38;;;21.00;93.90;;;;;;4967514;28;21081;-81
2023/07/05 11:52:53;;;;;;;2.60;1.33;;;21.00;93.20;;;;;;4969248;28;20230;-80
2023/07/05 11:55:25;;;;;;;2.70;1.50;;;21.00;92.80;;;;;;4964234;28;20222;-80
2023/07/05 11:57:58;;;;;;;3.70;1.45;;;20.90;91.30;;;;;;4965466;28;20226;-80
2023/07/05 12:00:34;;;;;;;7.30;1.65;;;20.90;92.00;;;;;;4972025;28;20233;-80
2023/07/05 12:03:06;;;;;;;5.55;1.50;;;20.60;90.70;;;;;;4965870;28;20595;-80
2023/07/05 12:05:34;;;;;;;2.17;1.30;;;20.50;91.90;;;;;;4968832;28;20227;-80
2023/07/05 12:08:08;;;;;;;4.35;1.35;;;20.40;92.40;;;;;;4959077;28;20235;-80
2023/07/05 12:10:36;;;;;;;3.20;1.50;;;20.30;92.50;;;;;;4968038;28;20229;-80
2023/07/05 12:13:06;;;;;;;3.70;1.47;;;20.10;92.60;;;;;;4950599;28;20230;-80
2023/07/05 12:15:37;;;;;;;3.33;1.33;;;20.00;93.00;;;;;;4984541;28;20708;-80
2023/07/05 12:18:05;;;;;;;3.70;1.40;;;19.80;93.80;;;;;;4986965;28;20229;-80
2023/07/05 12:20:38;;;;;;;3.73;1.30;;;19.70;93.30;;;;;;4980124;28;20232;-80
2023/07/05 12:23:09;;;;;;;4.45;1.77;;;19.50;93.10;;;;;;4970809;28;20321;-81
2023/07/05 12:25:36;;;;;;;4.40;1.50;;;19.50;93.90;;;;;;4988834;28;20234;-80
2023/07/05 12:28:03;;;;;;;3.47;1.50;;;19.60;94.30;;;;;;4986632;28;20221;-80
2023/07/05 12:30:31;;;;;;;2.22;1.10;;;19.60;94.40;;;;;;4987929;28;20253;-80
2023/07/05 12:33:00;;;;;;;4.72;1.52;;;19.70;94.30;;;;;;4970091;28;20229;-80
2023/07/05 12:35:27;;;;;;;4.63;1.25;;;19.70;93.80;;;;;;4968896;28;20312;-80
2023/07/05 12:37:56;;;;;;;3.40;1.30;;;19.50;93.20;;;;;;4968322;28;20279;-80
2023/07/05 12:40:27;;;;;;;2.23;1.20;;;19.30;93.10;;;;;;4955421;28;20313;-80
2023/07/05 12:42:55;;;;;;;2.20;1.53;;;19.10;93.40;;;;;;4970244;28;20231;-80
2023/07/05 12:45:26;;;;;;;4.47;1.30;;;19.10;94.30;;;;;;4953999;28;20219;-80
2023/07/05 12:47:53;;;;;;;5.23;1.60;;;18.90;93.30;;;;;;4970344;28;20608;-80
2023/07/05 12:50:24;;;;;;;5.60;1.40;;;18.90;94.40;;;;;;4967019;28;20234;-80
2023/07/05 12:53:06;;;;;;;3.10;1.50;;;18.80;93.90;;;;;;4967946;28;20231;-80